Time;durP1;ratioP1;P1;durP2;ratioP2;P2;SDS_P1;SDS_P2;PMS_P1;PMS_P2;Temp;Humidity;BMP_temperature;BMP_pressure;BME280_temperature;BME280_humidity;BME280_pressure;Samples;Min_cycle;Max_cycle;Signal;HPM_P1;HPM_P2
2023/01/12 00:01:48;;;;;;;16.65;2.00;;;7.00;99.90;;;;;;5095185;28;20772;-76
2023/01/12 00:04:15;;;;;;;15.85;2.20;;;7.10;99.90;;;;;;5076966;28;20417;-76
2023/01/12 00:06:41;;;;;;;15.65;2.88;;;7.10;99.90;;;;;;5094915;28;20433;-76
2023/01/12 00:09:07;;;;;;;21.00;2.80;;;7.20;99.90;;;;;;5079792;28;20454;-76
2023/01/12 00:11:33;;;;;;;18.92;2.10;;;7.20;99.90;;;;;;5078094;28;20772;-76
2023/01/12 00:13:59;;;;;;;16.27;2.30;;;7.30;99.90;;;;;;5096100;28;20995;-76
2023/01/12 00:16:36;;;;;;;18.70;2.37;;;7.30;99.90;;;;;;5096375;28;20477;-76
2023/01/12 00:19:22;;;;;;;16.85;2.03;;;7.20;99.90;;;;;;5095814;28;20444;-76
2023/01/12 00:21:56;;;;;;;14.32;2.08;;;7.30;99.90;;;;;;5097395;28;20976;-76
2023/01/12 00:24:43;;;;;;;19.38;2.30;;;7.30;99.90;;;;;;5078118;28;20466;-76
2023/01/12 00:27:15;;;;;;;14.98;2.10;;;7.30;99.90;;;;;;5097720;28;20449;-76
2023/01/12 00:29:41;;;;;;;14.52;2.20;;;7.30;99.90;;;;;;5094298;28;20398;-76
2023/01/12 00:32:14;;;;;;;13.17;2.33;;;7.30;99.90;;;;;;5094180;28;20948;-76
2023/01/12 00:34:41;;;;;;;10.88;1.77;;;7.30;99.90;;;;;;5093314;28;20438;-76
2023/01/12 00:37:06;;;;;;;13.37;1.97;;;7.30;99.90;;;;;;5092874;28;20401;-76
2023/01/12 00:39:35;;;;;;;17.90;2.10;;;7.30;99.90;;;;;;5092942;28;20534;-76
2023/01/12 00:47:30;;;;;;;17.25;2.10;;;7.50;99.90;;;;;;5094031;28;20440;-76
2023/01/12 00:49:55;;;;;;;17.60;2.37;;;7.60;99.90;;;;;;5092728;28;20401;-76
2023/01/12 00:52:21;;;;;;;19.73;2.63;;;7.60;99.90;;;;;;5093905;28;20921;-76
2023/01/12 00:54:47;;;;;;;16.60;2.20;;;7.60;99.90;;;;;;5092778;28;20420;-76
2023/01/12 00:57:14;;;;;;;18.97;2.67;;;7.70;99.90;;;;;;5094346;28;20441;-76
2023/01/12 00:59:40;;;;;;;18.20;3.00;;;7.70;99.90;;;;;;5079946;28;20425;-76
2023/01/12 01:02:06;;;;;;;22.27;3.17;;;7.70;99.90;;;;;;5073228;28;20406;-76
2023/01/12 01:04:33;;;;;;;22.63;3.50;;;7.70;99.90;;;;;;5091308;28;20917;-76
2023/01/12 01:07:00;;;;;;;22.95;3.13;;;7.70;99.90;;;;;;5089464;28;20462;-76
2023/01/12 01:09:26;;;;;;;15.98;2.38;;;7.70;99.90;;;;;;5078659;28;20509;-76
2023/01/12 01:11:51;;;;;;;15.23;2.33;;;7.70;99.90;;;;;;5090306;28;20451;-76
2023/01/12 01:14:17;;;;;;;14.30;2.35;;;7.70;99.90;;;;;;5089449;28;20406;-76
2023/01/12 01:16:42;;;;;;;14.30;2.17;;;7.60;99.90;;;;;;5103564;28;20402;-76
2023/01/12 01:19:09;;;;;;;15.35;2.78;;;7.60;99.90;;;;;;5090465;28;20398;-76
2023/01/12 01:21:34;;;;;;;20.00;3.20;;;7.60;99.90;;;;;;5090916;28;20401;-76
2023/01/12 01:24:00;;;;;;;17.42;2.45;;;7.50;99.90;;;;;;5087189;28;20791;-76
2023/01/12 01:26:26;;;;;;;20.40;3.40;;;7.50;99.90;;;;;;5089590;28;20804;-76
2023/01/12 01:28:51;;;;;;;22.88;2.70;;;7.50;99.90;;;;;;5091358;28;20404;-76
2023/01/12 01:31:22;;;;;;;21.63;3.08;;;7.50;99.90;;;;;;5090548;28;20394;-76
2023/01/12 01:33:49;;;;;;;18.52;3.33;;;7.50;99.90;;;;;;5090627;28;20406;-76
2023/01/12 01:36:16;;;;;;;22.40;3.17;;;7.50;99.90;;;;;;5090427;28;20406;-76
2023/01/12 01:38:43;;;;;;;20.33;3.03;;;7.50;99.90;;;;;;5090129;28;21010;-76
2023/01/12 01:41:22;;;;;;;22.80;2.70;;;7.50;99.90;;;;;;5087871;28;20404;-76
2023/01/12 01:43:52;;;;;;;23.48;3.45;;;7.50;99.90;;;;;;5091194;28;20437;-76
2023/01/12 01:46:40;;;;;;;17.83;2.65;;;7.60;99.90;;;;;;5089602;28;20508;-76
2023/01/12 01:49:24;;;;;;;22.10;3.13;;;7.60;99.90;;;;;;5088217;28;20502;-76
2023/01/12 01:52:12;;;;;;;21.08;3.22;;;7.60;99.90;;;;;;5089979;28;20410;-76
2023/01/12 01:55:11;;;;;;;18.40;2.53;;;7.60;99.90;;;;;;5103972;28;20429;-76
2023/01/12 01:57:58;;;;;;;20.52;3.08;;;7.60;99.90;;;;;;5086129;28;20421;-76
2023/01/12 02:00:24;;;;;;;18.25;2.92;;;7.70;99.90;;;;;;5090918;28;20402;-76
2023/01/12 02:02:51;;;;;;;21.33;2.88;;;7.70;99.90;;;;;;5074358;28;20398;-76
2023/01/12 02:05:21;;;;;;;17.92;2.67;;;7.70;99.90;;;;;;5089516;28;20402;-76
2023/01/12 02:07:49;;;;;;;16.88;2.92;;;7.70;99.90;;;;;;5090819;28;20426;-76
2023/01/12 02:10:16;;;;;;;17.90;2.55;;;7.60;99.90;;;;;;5079738;28;20403;-76
2023/01/12 02:18:42;;;;;;;19.75;2.42;;;7.70;99.90;;;;;;5088674;28;20817;-76
2023/01/12 02:21:19;;;;;;;19.83;2.85;;;7.70;99.90;;;;;;5087735;28;20496;-76
2023/01/12 02:23:54;;;;;;;18.87;2.90;;;7.60;99.90;;;;;;5071236;28;20399;-76
2023/01/12 02:26:27;;;;;;;26.40;3.70;;;7.70;99.90;;;;;;5085298;28;20951;-76
2023/01/12 02:29:30;;;;;;;17.88;3.15;;;7.70;99.90;;;;;;5070732;28;20406;-76
2023/01/12 02:32:14;;;;;;;21.35;2.83;;;7.60;99.90;;;;;;5087941;28;20458;-76
2023/01/12 02:34:58;;;;;;;19.90;2.67;;;7.60;99.90;;;;;;5077984;28;20410;-76
2023/01/12 02:37:46;;;;;;;24.37;3.00;;;7.70;99.90;;;;;;5088921;28;20911;-76
2023/01/12 02:40:37;;;;;;;20.40;2.83;;;7.70;99.90;;;;;;5070979;28;20431;-76
2023/01/12 02:43:06;;;;;;;17.65;2.83;;;7.80;99.90;;;;;;5080416;28;20804;-76
2023/01/12 02:45:57;;;;;;;19.77;2.58;;;7.80;99.90;;;;;;5087412;28;20418;-76
2023/01/12 02:48:51;;;;;;;19.60;2.78;;;7.80;99.90;;;;;;5087685;28;20904;-76
2023/01/12 02:51:40;;;;;;;19.90;2.78;;;7.90;99.90;;;;;;5080078;28;20453;-76
2023/01/12 02:54:13;;;;;;;15.82;3.03;;;7.90;99.90;;;;;;5087236;28;21354;-76
2023/01/12 02:56:50;;;;;;;16.20;2.53;;;7.90;99.90;;;;;;5088453;28;20543;-76
2023/01/12 02:59:28;;;;;;;18.27;3.05;;;8.00;99.90;;;;;;5087249;28;20911;-76
2023/01/12 03:02:02;;;;;;;24.90;3.55;;;8.00;99.90;;;;;;5087625;28;20421;-76
2023/01/12 03:04:31;;;;;;;19.63;3.13;;;8.00;99.90;;;;;;5087522;28;20463;-76
2023/01/12 03:06:56;;;;;;;23.08;3.22;;;8.00;99.90;;;;;;5087213;28;20429;-76
2023/01/12 03:09:43;;;;;;;23.47;3.10;;;8.00;99.90;;;;;;5090611;28;20467;-76
2023/01/12 03:12:35;;;;;;;19.50;2.85;;;8.00;99.90;;;;;;5079404;28;20406;-76
2023/01/12 03:15:04;;;;;;;20.88;3.60;;;8.00;99.90;;;;;;5081303;28;20931;-76
2023/01/12 03:17:38;;;;;;;21.17;3.28;;;8.00;99.90;;;;;;5091560;28;20806;-76
2023/01/12 03:20:27;;;;;;;23.50;3.50;;;8.00;99.90;;;;;;5088479;28;20438;-76
2023/01/12 03:22:59;;;;;;;25.23;3.85;;;8.00;99.90;;;;;;5069618;28;20501;-76
2023/01/12 03:25:27;;;;;;;23.88;3.58;;;8.00;99.90;;;;;;5092245;28;20399;-76
2023/01/12 03:27:56;;;;;;;24.05;3.28;;;8.00;99.90;;;;;;5086192;28;20447;-76
2023/01/12 03:30:27;;;;;;;20.88;3.45;;;8.00;99.90;;;;;;5088402;28;20412;-76
2023/01/12 03:32:53;;;;;;;21.65;3.10;;;8.00;99.90;;;;;;5089975;28;20807;-76
2023/01/12 03:35:26;;;;;;;21.98;3.50;;;8.00;99.90;;;;;;5069788;28;20406;-76
2023/01/12 03:37:58;;;;;;;21.30;3.60;;;8.10;99.90;;;;;;5088799;28;20435;-76
2023/01/12 03:40:34;;;;;;;24.30;3.13;;;8.10;99.90;;;;;;5086812;28;20900;-76
2023/01/12 03:43:14;;;;;;;21.93;3.57;;;8.10;99.90;;;;;;5087205;28;20908;-76
2023/01/12 03:45:53;;;;;;;19.80;3.33;;;8.10;99.90;;;;;;5087667;28;20416;-76
2023/01/12 03:48:29;;;;;;;19.73;3.10;;;8.10;99.90;;;;;;5087399;28;20459;-76
2023/01/12 03:51:18;;;;;;;20.83;3.43;;;8.10;99.90;;;;;;5087425;28;20437;-76
2023/01/12 03:53:48;;;;;;;22.27;3.88;;;8.20;99.90;;;;;;5087412;28;21253;-76
2023/01/12 03:56:15;;;;;;;24.02;3.97;;;8.20;99.90;;;;;;5087392;28;20652;-76
2023/01/12 03:58:41;;;;;;;24.50;4.25;;;8.20;99.90;;;;;;5085202;28;20417;-76
2023/01/12 04:01:07;;;;;;;21.73;3.97;;;8.20;99.90;;;;;;5087598;28;21267;-76
2023/01/12 04:03:33;;;;;;;22.77;4.10;;;8.20;99.90;;;;;;5087562;28;20426;-76
2023/01/12 04:05:58;;;;;;;21.97;3.63;;;8.20;99.90;;;;;;5088254;28;20776;-76
2023/01/12 04:08:24;;;;;;;21.33;3.60;;;8.20;99.90;;;;;;5087457;28;20759;-76
2023/01/12 04:10:49;;;;;;;18.10;3.50;;;8.10;99.90;;;;;;5087915;28;20403;-76
2023/01/12 04:13:15;;;;;;;16.88;3.92;;;8.20;99.90;;;;;;5088277;28;20405;-76
2023/01/12 04:15:43;;;;;;;19.43;2.83;;;8.20;99.90;;;;;;5089540;28;20395;-76
2023/01/12 04:18:10;;;;;;;16.90;3.30;;;8.20;99.90;;;;;;5088714;28;20423;-76
2023/01/12 04:20:37;;;;;;;18.92;3.28;;;8.20;99.90;;;;;;5088220;28;20409;-76
2023/01/12 04:23:03;;;;;;;16.65;2.97;;;8.20;99.90;;;;;;5087495;28;20763;-76
2023/01/12 04:25:29;;;;;;;17.45;2.35;;;8.20;99.90;;;;;;5087450;28;20409;-76
2023/01/12 04:27:59;;;;;;;13.23;2.90;;;8.20;99.90;;;;;;5087522;28;20422;-76
2023/01/12 04:30:27;;;;;;;16.77;3.05;;;8.30;99.90;;;;;;5086121;28;20498;-76
2023/01/12 04:32:53;;;;;;;20.23;3.10;;;8.30;99.90;;;;;;5085918;28;20500;-76
2023/01/12 04:35:19;;;;;;;16.42;2.42;;;8.30;99.90;;;;;;5087331;28;20437;-76
2023/01/12 04:37:45;;;;;;;21.05;2.90;;;8.30;99.90;;;;;;5091616;28;20437;-76
2023/01/12 04:40:12;;;;;;;21.42;2.60;;;8.30;99.90;;;;;;5092285;28;20978;-76
2023/01/12 04:43:07;;;;;;;19.77;3.10;;;8.30;99.90;;;;;;5090726;28;20402;-76
2023/01/12 04:45:38;;;;;;;16.75;2.28;;;8.30;99.90;;;;;;5091382;28;20471;-76
2023/01/12 04:48:09;;;;;;;17.33;3.22;;;8.30;99.90;;;;;;5091655;28;20916;-76
2023/01/12 04:50:37;;;;;;;15.85;2.58;;;8.30;99.90;;;;;;5092812;28;20402;-76
2023/01/12 04:53:07;;;;;;;16.17;2.80;;;8.30;99.90;;;;;;5090841;28;20440;-76
2023/01/12 04:55:37;;;;;;;13.35;2.15;;;8.30;99.90;;;;;;5091402;28;20497;-76
2023/01/12 04:58:03;;;;;;;12.73;2.00;;;8.30;99.90;;;;;;5089733;28;20420;-76
2023/01/12 05:00:29;;;;;;;10.23;1.77;;;8.30;99.90;;;;;;5088891;28;20401;-77
2023/01/12 05:03:05;;;;;;;10.10;2.00;;;8.30;99.90;;;;;;5091023;28;20923;-76
2023/01/12 05:05:32;;;;;;;8.43;1.25;;;8.30;99.90;;;;;;5090822;28;20802;-76
2023/01/12 05:10:52;;;;;;;10.55;1.80;;;8.30;99.90;;;;;;5090905;28;20425;-77
2023/01/12 05:13:18;;;;;;;10.00;1.42;;;8.30;99.90;;;;;;5092604;28;20402;-76
2023/01/12 05:15:44;;;;;;;10.77;1.55;;;8.30;99.90;;;;;;5090685;28;20469;-76
2023/01/12 05:18:09;;;;;;;7.75;1.65;;;8.30;99.90;;;;;;5090440;28;20402;-75
2023/01/12 05:20:35;;;;;;;9.57;1.35;;;8.20;99.90;;;;;;5091611;28;20394;-76
2023/01/12 05:23:01;;;;;;;8.03;1.10;;;8.30;99.90;;;;;;5091242;28;20409;-76
2023/01/12 05:25:28;;;;;;;7.07;1.00;;;8.20;99.90;;;;;;5090293;28;20447;-76
2023/01/12 05:27:56;;;;;;;6.18;1.00;;;8.20;99.90;;;;;;5093218;28;20926;-76
2023/01/12 05:30:22;;;;;;;5.18;1.45;;;8.20;99.90;;;;;;5090210;28;20406;-76
2023/01/12 05:32:48;;;;;;;5.93;1.30;;;8.20;99.90;;;;;;5090324;28;20437;-76
2023/01/12 05:35:13;;;;;;;4.15;0.95;;;8.20;99.90;;;;;;5089676;28;20437;-76
2023/01/12 05:37:41;;;;;;;7.38;1.10;;;8.20;99.90;;;;;;5090535;28;20528;-76
2023/01/12 05:40:07;;;;;;;7.40;1.15;;;8.20;99.90;;;;;;5089556;28;20493;-76
2023/01/12 05:45:17;;;;;;;5.90;0.93;;;8.20;99.90;;;;;;5091671;28;20422;-76
2023/01/12 05:47:43;;;;;;;6.18;1.20;;;8.10;99.90;;;;;;5091026;28;20851;-76
2023/01/12 05:50:09;;;;;;;5.53;1.13;;;8.20;99.90;;;;;;5094086;28;20491;-76
2023/01/12 05:52:34;;;;;;;3.83;0.90;;;8.10;99.90;;;;;;5087748;28;20406;-76
2023/01/12 05:55:00;;;;;;;4.00;0.80;;;8.10;99.90;;;;;;5094243;28;20403;-76
2023/01/12 05:57:28;;;;;;;5.60;1.08;;;8.10;99.90;;;;;;5092259;28;20402;-76
2023/01/12 05:59:55;;;;;;;4.30;0.80;;;8.10;99.90;;;;;;5095827;28;20409;-76
2023/01/12 06:02:20;;;;;;;5.17;1.00;;;8.10;99.90;;;;;;5092586;28;20740;-76
2023/01/12 06:04:46;;;;;;;3.50;0.70;;;8.10;99.90;;;;;;5079069;28;20491;-76
2023/01/12 06:07:13;;;;;;;2.75;0.82;;;8.10;99.90;;;;;;5092428;28;20823;-77
2023/01/12 06:09:39;;;;;;;5.45;1.05;;;8.10;99.90;;;;;;5095931;28;20416;-76
2023/01/12 06:14:50;;;;;;;3.33;0.73;;;8.10;99.90;;;;;;5088412;28;20445;-76
2023/01/12 06:17:15;;;;;;;2.80;0.70;;;8.10;99.90;;;;;;5093176;28;20398;-76
2023/01/12 06:19:41;;;;;;;3.05;0.60;;;8.10;99.90;;;;;;5097732;28;20542;-76
2023/01/12 06:22:07;;;;;;;3.20;0.40;;;8.10;99.90;;;;;;5093730;28;20430;-76
2023/01/12 06:24:33;;;;;;;3.67;0.50;;;8.10;99.90;;;;;;5099032;28;20755;-76
2023/01/12 06:26:59;;;;;;;2.20;0.50;;;8.10;99.90;;;;;;5094591;28;20425;-76
2023/01/12 06:29:25;;;;;;;2.90;0.50;;;8.10;99.90;;;;;;5099247;28;20408;-76
2023/01/12 06:31:50;;;;;;;4.72;0.60;;;8.10;99.90;;;;;;5089319;28;20410;-76
2023/01/12 06:34:16;;;;;;;3.22;0.40;;;8.10;99.90;;;;;;5087702;28;20974;-77
2023/01/12 06:36:42;;;;;;;5.17;0.50;;;8.20;99.90;;;;;;5088392;28;20467;-77
2023/01/12 06:39:07;;;;;;;2.47;0.35;;;8.20;99.90;;;;;;5087082;28;20420;-77
2023/01/12 06:44:18;;;;;;;2.23;0.53;;;8.20;99.90;;;;;;5089505;28;20406;-76
2023/01/12 06:46:44;;;;;;;2.95;0.30;;;8.30;99.90;;;;;;5072360;28;21146;-76
2023/01/12 06:49:09;;;;;;;2.40;0.55;;;8.30;99.90;;;;;;5071222;28;21362;-75
2023/01/12 06:51:35;;;;;;;3.43;0.40;;;8.30;99.90;;;;;;5090736;28;20398;-75
2023/01/12 06:54:01;;;;;;;3.85;0.30;;;8.40;99.90;;;;;;5090748;28;20434;-75
2023/01/12 06:56:27;;;;;;;1.48;0.25;;;8.40;99.90;;;;;;5084670;28;20437;-76
2023/01/12 06:58:52;;;;;;;3.10;0.70;;;8.40;99.90;;;;;;5100440;28;20446;-75
2023/01/12 07:01:18;;;;;;;2.00;0.30;;;8.40;99.90;;;;;;5088419;28;20555;-76
2023/01/12 07:03:44;;;;;;;2.38;0.30;;;8.50;99.90;;;;;;5086994;28;20414;-76
2023/01/12 07:06:10;;;;;;;1.17;0.20;;;8.50;99.90;;;;;;5092627;28;20784;-76
2023/01/12 07:08:35;;;;;;;1.23;0.20;;;8.50;99.90;;;;;;5093093;28;20745;-76
2023/01/12 07:11:11;;;;;;;1.90;0.20;;;8.60;99.90;;;;;;5093455;28;20405;-77
2023/01/12 07:13:36;;;;;;;0.98;0.20;;;8.60;99.90;;;;;;5092092;28;20406;-77
2023/01/12 07:16:02;;;;;;;1.67;0.30;;;8.60;99.90;;;;;;5093341;28;20747;-77
2023/01/12 07:18:29;;;;;;;0.47;0.13;;;8.70;99.90;;;;;;5094087;28;20402;-77
2023/01/12 07:20:55;;;;;;;2.80;0.20;;;8.70;99.90;;;;;;5074211;28;20453;-76
2023/01/12 07:23:21;;;;;;;1.87;0.43;;;8.70;99.90;;;;;;5087925;28;20915;-76
2023/01/12 07:25:46;;;;;;;1.00;0.20;;;8.70;99.90;;;;;;5094311;28;20405;-77
2023/01/12 07:28:12;;;;;;;2.17;0.20;;;8.80;99.90;;;;;;5087598;28;20453;-76
2023/01/12 07:30:38;;;;;;;2.30;0.30;;;8.80;99.90;;;;;;5088200;28;20416;-77
2023/01/12 07:33:09;;;;;;;2.80;0.50;;;8.90;99.90;;;;;;5076539;28;20482;-77
2023/01/12 07:35:34;;;;;;;3.65;1.00;;;8.90;99.90;;;;;;5088179;28;20412;-77
2023/01/12 07:38:00;;;;;;;5.10;0.87;;;9.00;99.90;;;;;;5086995;28;20398;-76
2023/01/12 07:40:26;;;;;;;6.63;1.27;;;9.00;99.90;;;;;;5086816;28;20931;-77
2023/01/12 07:43:06;;;;;;;4.87;1.27;;;9.10;99.90;;;;;;5087421;28;20402;-77
2023/01/12 07:45:33;;;;;;;4.45;1.40;;;9.20;99.90;;;;;;5086644;28;20425;-77
2023/01/12 07:47:58;;;;;;;5.68;1.33;;;9.20;99.90;;;;;;5086317;28;20977;-77
2023/01/12 07:50:25;;;;;;;5.55;1.10;;;9.20;99.90;;;;;;5087076;28;20404;-77
2023/01/12 07:52:51;;;;;;;7.25;1.17;;;9.30;99.90;;;;;;5088239;28;20408;-77
2023/01/12 07:55:18;;;;;;;4.80;1.10;;;9.40;99.90;;;;;;5069936;28;20836;-77
2023/01/12 07:58:05;;;;;;;6.28;1.35;;;9.40;99.90;;;;;;5086883;28;20409;-76
2023/01/12 08:00:31;;;;;;;7.85;1.70;;;9.40;99.90;;;;;;5086272;28;20413;-77
2023/01/12 08:03:10;;;;;;;7.18;1.67;;;9.50;99.90;;;;;;5086830;28;20413;-77
2023/01/12 08:05:37;;;;;;;8.20;1.38;;;9.50;99.90;;;;;;5088306;28;20393;-77
2023/01/12 08:08:04;;;;;;;10.57;1.48;;;9.50;99.90;;;;;;5085759;28;20421;-77
2023/01/12 08:10:30;;;;;;;10.43;1.40;;;9.60;99.90;;;;;;5089243;28;20398;-77
2023/01/12 08:12:55;;;;;;;10.38;2.25;;;9.60;99.90;;;;;;5092828;28;20406;-77
2023/01/12 08:15:23;;;;;;;12.23;2.10;;;9.60;99.90;;;;;;5091636;28;20967;-77
2023/01/12 08:17:54;;;;;;;12.52;2.10;;;9.70;99.90;;;;;;5093472;28;20398;-77
2023/01/12 08:20:28;;;;;;;12.82;1.77;;;9.70;99.90;;;;;;5091912;28;20749;-77
2023/01/12 08:22:59;;;;;;;12.68;2.25;;;9.70;99.90;;;;;;5092321;28;20412;-77
2023/01/12 08:25:30;;;;;;;18.42;3.50;;;9.80;99.90;;;;;;5092310;28;20795;-77
2023/01/12 08:27:59;;;;;;;14.95;2.67;;;9.80;99.90;;;;;;5081853;28;20517;-77
2023/01/12 08:30:26;;;;;;;17.40;2.38;;;9.90;99.90;;;;;;5093279;28;20406;-77
2023/01/12 08:32:55;;;;;;;20.45;2.75;;;10.00;99.90;;;;;;5075688;28;20424;-77
2023/01/12 08:35:24;;;;;;;17.33;2.35;;;10.00;99.90;;;;;;5085548;28;20422;-77
2023/01/12 08:37:49;;;;;;;14.07;2.20;;;10.10;99.90;;;;;;5084189;28;20826;-77
2023/01/12 08:40:15;;;;;;;21.30;2.95;;;10.10;99.90;;;;;;5080670;28;20749;-77
2023/01/12 08:42:42;;;;;;;13.97;2.80;;;10.20;99.90;;;;;;5098791;28;20485;-77
2023/01/12 08:45:08;;;;;;;11.55;2.05;;;10.20;99.90;;;;;;5090569;28;20437;-76
2023/01/12 08:47:33;;;;;;;15.20;2.22;;;10.20;99.90;;;;;;5109947;28;20435;-77
2023/01/12 08:49:59;;;;;;;15.00;2.10;;;10.30;99.90;;;;;;5098051;28;20394;-77
2023/01/12 08:52:28;;;;;;;12.07;1.50;;;10.30;99.90;;;;;;5091322;28;20458;-77
2023/01/12 08:54:55;;;;;;;11.05;1.77;;;10.40;99.90;;;;;;5096855;28;20435;-77
2023/01/12 08:57:21;;;;;;;16.48;2.15;;;10.40;99.90;;;;;;5094568;28;20419;-77
2023/01/12 08:59:47;;;;;;;8.68;1.80;;;10.40;99.90;;;;;;5102154;28;20481;-77
2023/01/12 09:02:14;;;;;;;9.07;1.55;;;10.40;99.90;;;;;;5088575;28;20875;-77
2023/01/12 09:04:40;;;;;;;13.53;1.90;;;10.50;99.90;;;;;;5070424;28;20415;-77
2023/01/12 09:07:06;;;;;;;14.85;2.22;;;10.40;99.90;;;;;;5105565;28;20432;-77
2023/01/12 09:09:32;;;;;;;13.25;1.90;;;10.50;99.90;;;;;;5092466;28;20410;-77
2023/01/12 09:11:58;;;;;;;13.07;2.00;;;10.50;99.90;;;;;;5086056;28;20426;-77
2023/01/12 09:14:26;;;;;;;12.00;1.83;;;10.50;99.90;;;;;;5088921;28;20476;-77
2023/01/12 09:16:54;;;;;;;11.82;1.73;;;10.50;99.90;;;;;;5083707;28;20436;-77
2023/01/12 09:19:20;;;;;;;11.77;1.53;;;10.50;99.90;;;;;;5078746;28;20416;-77
2023/01/12 09:21:45;;;;;;;11.30;1.23;;;10.50;99.90;;;;;;5091690;28;20404;-77
2023/01/12 09:24:13;;;;;;;8.77;1.90;;;10.50;99.90;;;;;;5095092;28;20412;-77
2023/01/12 09:26:40;;;;;;;8.85;1.42;;;10.50;99.90;;;;;;5100533;28;20453;-76
2023/01/12 09:29:07;;;;;;;15.80;1.80;;;10.50;99.90;;;;;;5088188;28;21021;-77
2023/01/12 09:31:34;;;;;;;12.35;1.48;;;10.50;99.90;;;;;;5088776;28;20756;-77
2023/01/12 09:34:00;;;;;;;9.65;1.40;;;10.50;99.90;;;;;;5094463;28;20416;-77
2023/01/12 09:36:27;;;;;;;10.23;1.63;;;10.50;99.90;;;;;;5101354;28;20414;-77
2023/01/12 09:38:53;;;;;;;12.80;1.55;;;10.50;99.90;;;;;;5093841;28;20428;-76
2023/01/12 09:47:06;;;;;;;11.13;1.25;;;10.50;99.90;;;;;;5087892;28;20516;-76
2023/01/12 09:49:38;;;;;;;10.20;1.38;;;10.60;99.90;;;;;;5082405;28;20507;-77
2023/01/12 09:52:18;;;;;;;12.43;1.83;;;10.60;99.90;;;;;;5088166;28;20406;-76
2023/01/12 09:54:47;;;;;;;9.95;1.33;;;10.60;99.90;;;;;;5076981;28;20410;-76
2023/01/12 09:57:57;;;;;;;9.68;1.48;;;10.60;99.90;;;;;;5087007;28;20487;-76
2023/01/12 10:00:23;;;;;;;12.02;1.92;;;10.60;99.90;;;;;;5007157;28;20451;-76
2023/01/12 10:02:59;;;;;;;12.13;1.37;;;10.60;99.90;;;;;;5077616;28;20400;-76
2023/01/12 10:05:47;;;;;;;13.05;1.50;;;10.60;99.90;;;;;;5091446;28;20426;-77
2023/01/12 10:08:17;;;;;;;11.35;1.80;;;10.60;99.90;;;;;;5060519;28;20410;-77
2023/01/12 10:11:03;;;;;;;10.68;1.58;;;10.60;99.90;;;;;;5088847;28;20405;-77
2023/01/12 10:14:04;;;;;;;13.13;2.00;;;10.60;99.90;;;;;;5063170;28;20413;-76
2023/01/12 10:16:49;;;;;;;14.18;1.55;;;10.60;99.90;;;;;;5054204;28;20996;-77
2023/01/12 10:19:22;;;;;;;12.33;1.73;;;10.50;99.90;;;;;;5087022;28;20430;-77
2023/01/12 10:21:51;;;;;;;13.98;2.25;;;10.60;99.90;;;;;;5076688;28;20968;-76
2023/01/12 10:24:20;;;;;;;15.43;2.50;;;10.60;99.90;;;;;;5088994;28;20776;-76
2023/01/12 10:26:50;;;;;;;13.52;1.90;;;10.60;99.90;;;;;;5087322;28;20794;-76
2023/01/12 10:29:15;;;;;;;11.32;1.88;;;10.60;99.90;;;;;;5086922;28;20426;-76
2023/01/12 10:31:41;;;;;;;10.57;1.42;;;10.60;99.90;;;;;;5085805;28;20429;-76
2023/01/12 10:34:11;;;;;;;6.90;1.60;;;10.60;99.90;;;;;;5082360;28;20449;-76
2023/01/12 10:36:46;;;;;;;9.18;1.70;;;10.60;99.90;;;;;;5087234;28;20402;-76
2023/01/12 10:39:26;;;;;;;11.15;1.60;;;10.60;99.90;;;;;;5069136;28;20511;-76
2023/01/12 10:45:19;;;;;;;10.43;1.35;;;10.70;99.90;;;;;;5077070;28;20429;-76
2023/01/12 10:47:46;;;;;;;10.38;1.40;;;10.80;99.90;;;;;;5077597;28;20466;-77
2023/01/12 10:50:19;;;;;;;11.80;1.80;;;10.80;99.90;;;;;;5081372;28;21281;-76
2023/01/12 10:52:46;;;;;;;12.95;1.50;;;10.80;99.90;;;;;;5078338;28;20528;-76
2023/01/12 10:55:19;;;;;;;8.90;1.33;;;10.90;99.90;;;;;;5087289;28;20402;-77
2023/01/12 10:57:47;;;;;;;7.78;1.27;;;10.90;99.90;;;;;;5083489;28;20410;-76
2023/01/12 11:00:25;;;;;;;10.15;1.35;;;10.90;99.90;;;;;;5065262;28;20448;-77
2023/01/12 11:02:51;;;;;;;8.20;1.50;;;11.10;99.90;;;;;;5075628;28;20410;-77
2023/01/12 11:05:29;;;;;;;12.25;1.75;;;11.10;99.90;;;;;;5089963;28;20403;-77
2023/01/12 11:07:55;;;;;;;9.93;1.42;;;11.20;99.90;;;;;;5103849;28;20814;-77
2023/01/12 11:10:26;;;;;;;7.85;1.10;;;11.20;99.90;;;;;;5096315;28;20786;-77
2023/01/12 11:12:57;;;;;;;11.77;1.42;;;11.40;99.90;;;;;;5088814;28;20422;-77
2023/01/12 11:15:23;;;;;;;8.90;1.27;;;11.40;99.90;;;;;;5088210;28;21059;-77
2023/01/12 11:18:24;;;;;;;11.10;1.60;;;11.50;99.90;;;;;;5087820;28;20436;-77
2023/01/12 11:20:53;;;;;;;10.45;1.25;;;11.50;99.90;;;;;;5069906;28;20807;-74
2023/01/12 11:23:36;;;;;;;9.77;1.38;;;11.40;99.90;;;;;;5090927;28;20505;-75
2023/01/12 11:26:14;;;;;;;10.05;1.30;;;11.40;99.90;;;;;;5089555;28;20422;-77
2023/01/12 11:28:46;;;;;;;11.35;1.58;;;11.30;99.90;;;;;;5083507;28;20432;-77
2023/01/12 11:31:34;;;;;;;10.98;1.45;;;11.30;99.90;;;;;;5089759;28;20774;-77
2023/01/12 11:34:04;;;;;;;10.27;1.60;;;11.30;99.90;;;;;;5088609;28;20430;-77
2023/01/12 11:36:35;;;;;;;10.80;1.42;;;11.30;99.90;;;;;;5089982;28;20436;-77
2023/01/12 11:39:12;;;;;;;10.27;1.38;;;11.30;99.90;;;;;;5086072;28;20441;-77
2023/01/12 11:44:46;;;;;;;11.17;1.50;;;11.20;99.90;;;;;;5088735;28;20434;-77
2023/01/12 11:47:21;;;;;;;11.25;1.40;;;11.10;99.90;;;;;;5091754;28;20462;-77
2023/01/12 11:50:09;;;;;;;8.07;0.95;;;11.10;99.90;;;;;;5073203;28;20408;-77
2023/01/12 11:52:35;;;;;;;12.10;1.20;;;11.10;99.90;;;;;;5090483;28;20445;-77
2023/01/12 11:55:01;;;;;;;8.07;1.00;;;11.10;99.90;;;;;;5082877;28;20467;-77
2023/01/12 11:57:40;;;;;;;9.40;1.02;;;11.10;99.90;;;;;;5070481;28;20405;-77
2023/01/12 12:00:15;;;;;;;6.15;1.20;;;11.00;99.90;;;;;;5084517;28;20410;-77
2023/01/12 12:02:45;;;;;;;11.13;1.40;;;11.00;99.90;;;;;;5085885;28;20484;-77
2023/01/12 12:05:35;;;;;;;9.32;1.35;;;10.90;99.90;;;;;;5084555;28;20447;-77
2023/01/12 12:08:26;;;;;;;8.82;1.13;;;10.90;99.90;;;;;;5068677;28;20434;-76
2023/01/12 12:11:06;;;;;;;9.80;1.23;;;10.90;99.90;;;;;;5085484;28;20458;-77
2023/01/12 12:13:41;;;;;;;12.25;1.98;;;10.90;99.90;;;;;;5086402;28;20571;-77
2023/01/12 12:16:25;;;;;;;8.75;1.10;;;10.80;99.90;;;;;;5079108;28;20438;-77
2023/01/12 12:19:23;;;;;;;11.27;1.42;;;10.80;99.90;;;;;;5086406;28;20946;-77
2023/01/12 12:21:59;;;;;;;9.30;1.48;;;10.80;99.90;;;;;;5079981;28;20426;-76
2023/01/12 12:24:55;;;;;;;12.02;1.80;;;10.80;99.90;;;;;;5072086;28;20477;-77
2023/01/12 12:27:49;;;;;;;11.98;1.60;;;10.80;99.90;;;;;;5083094;28;20438;-77
2023/01/12 12:30:24;;;;;;;11.93;1.60;;;10.80;99.90;;;;;;5075769;28;20426;-77
2023/01/12 12:33:01;;;;;;;11.98;1.58;;;10.80;99.90;;;;;;5086763;28;20573;-77
2023/01/12 12:35:43;;;;;;;12.07;2.00;;;10.80;99.90;;;;;;5087089;28;20475;-77
2023/01/12 12:38:21;;;;;;;10.07;1.70;;;10.90;99.90;;;;;;5086908;28;21155;-77
2023/01/12 12:47:39;;;;;;;8.90;1.00;;;11.10;99.90;;;;;;5085136;28;20455;-77
2023/01/12 12:50:22;;;;;;;8.80;1.23;;;11.20;99.90;;;;;;5067312;28;20434;-77
2023/01/12 12:53:08;;;;;;;10.10;1.70;;;11.50;99.90;;;;;;5085239;28;20632;-77
2023/01/12 12:55:35;;;;;;;10.77;1.20;;;11.60;99.90;;;;;;5075919;28;20426;-77
2023/01/12 12:58:24;;;;;;;8.48;1.33;;;11.70;99.90;;;;;;5086411;28;20957;-77
2023/01/12 13:00:51;;;;;;;10.07;1.50;;;11.70;99.90;;;;;;5089139;28;20453;-77
2023/01/12 13:03:38;;;;;;;11.15;1.50;;;11.60;99.90;;;;;;5088379;28;20931;-77
2023/01/12 13:06:19;;;;;;;11.38;1.77;;;11.60;99.90;;;;;;5089190;28;20425;-77
2023/01/12 13:08:46;;;;;;;7.93;1.77;;;11.60;99.90;;;;;;5089624;28;20838;-77
2023/01/12 13:11:12;;;;;;;10.55;1.67;;;11.50;99.90;;;;;;5088133;28;20417;-77
2023/01/12 13:14:00;;;;;;;6.97;0.90;;;11.50;99.90;;;;;;5085619;28;20418;-77
2023/01/12 13:16:26;;;;;;;8.65;1.35;;;11.50;99.90;;;;;;5088057;28;20433;-77
2023/01/12 13:18:51;;;;;;;7.28;1.05;;;11.50;99.90;;;;;;5086599;28;20436;-77
2023/01/12 13:21:41;;;;;;;12.30;1.40;;;11.40;99.90;;;;;;5087572;28;20426;-77
2023/01/12 13:24:10;;;;;;;11.73;1.50;;;11.40;99.90;;;;;;5084159;28;20753;-77
2023/01/12 13:26:41;;;;;;;9.98;1.45;;;11.30;99.90;;;;;;5085912;28;20525;-77
2023/01/12 13:29:22;;;;;;;12.10;1.60;;;11.30;99.90;;;;;;5074588;28;20422;-77
2023/01/12 13:31:55;;;;;;;11.77;2.10;;;11.30;99.90;;;;;;5090799;28;20421;-77
2023/01/12 13:34:50;;;;;;;9.15;1.40;;;11.20;99.90;;;;;;5072297;28;20402;-77
2023/01/12 13:37:31;;;;;;;12.93;1.83;;;11.20;99.90;;;;;;5069349;28;20441;-77
2023/01/12 13:40:16;;;;;;;12.65;1.92;;;11.20;99.90;;;;;;5092205;28;20784;-77
2023/01/12 13:45:29;;;;;;;10.80;1.92;;;11.20;99.90;;;;;;5088386;28;20474;-77
2023/01/12 13:47:55;;;;;;;12.93;1.92;;;11.20;99.90;;;;;;5088054;28;20472;-77
2023/01/12 13:50:24;;;;;;;10.30;1.38;;;11.30;99.90;;;;;;5089020;28;20964;-77
2023/01/12 13:53:01;;;;;;;13.55;2.38;;;11.30;99.90;;;;;;5088543;28;20515;-77